Time;durP1;ratioP1;P1;durP2;ratioP2;P2;SDS_P1;SDS_P2;PMS_P1;PMS_P2;Temp;Humidity;BMP_temperature;BMP_pressure;BME280_temperature;BME280_humidity;BME280_pressure;Samples;Min_cycle;Max_cycle;Signal;HPM_P1;HPM_P2
2023/01/08 00:01:42;;;;;;;;;;;;;;;25.59;31.15;101454.81;5066716;28;1980;-12
2023/01/08 00:04:07;;;;;;;;;;;;;;;25.48;31.16;101458.56;5057133;28;1202;-13
2023/01/08 00:06:32;;;;;;;;;;;;;;;25.58;31.18;101461.19;5067941;28;992;-12
2023/01/08 00:08:57;;;;;;;;;;;;;;;25.39;31.45;101473.84;5073370;28;1115;-13
2023/01/08 00:11:23;;;;;;;;;;;;;;;25.46;31.17;101472.19;5067977;28;1064;-13
2023/01/08 00:13:48;;;;;;;;;;;;;;;25.40;31.31;101473.69;5073729;28;1028;-12
2023/01/08 00:16:15;;;;;;;;;;;;;;;25.49;31.12;101476.44;5056974;28;1056;-13
2023/01/08 00:18:40;;;;;;;;;;;;;;;25.47;31.21;101476.59;5041821;28;1052;-13
2023/01/08 00:21:05;;;;;;;;;;;;;;;25.51;31.20;101482.50;5049272;28;1060;-13
2023/01/08 00:23:31;;;;;;;;;;;;;;;25.41;31.18;101478.06;5076563;28;1902;-13
2023/01/08 00:25:56;;;;;;;;;;;;;;;25.39;31.20;101479.22;5067032;28;1076;-13
2023/01/08 00:28:21;;;;;;;;;;;;;;;25.37;31.42;101483.91;5070263;28;1072;-12
2023/01/08 00:30:47;;;;;;;;;;;;;;;25.41;31.07;101488.81;5062675;28;1024;-12
2023/01/08 00:33:12;;;;;;;;;;;;;;;25.27;31.21;101482.16;5074278;28;1055;-12
2023/01/08 00:35:37;;;;;;;;;;;;;;;25.25;31.27;101491.34;5066276;28;1067;-12
2023/01/08 00:38:03;;;;;;;;;;;;;;;25.29;31.36;101479.28;5060889;28;1178;-12
2023/01/08 00:40:28;;;;;;;;;;;;;;;25.30;31.34;101479.13;5065998;28;1130;-12
2023/01/08 00:42:53;;;;;;;;;;;;;;;25.28;31.17;101478.44;5063528;28;1953;-12
2023/01/08 00:45:19;;;;;;;;;;;;;;;25.31;31.15;101483.50;5066058;28;1088;-12
2023/01/08 00:47:44;;;;;;;;;;;;;;;25.18;31.52;101488.41;5063105;28;1107;-12
2023/01/08 00:50:09;;;;;;;;;;;;;;;25.26;31.09;101487.66;5076295;28;1047;-12
2023/01/08 00:52:35;;;;;;;;;;;;;;;25.28;31.19;101472.19;5061323;28;1175;-12
2023/01/08 00:55:00;;;;;;;;;;;;;;;25.18;31.26;101475.81;5064960;28;1095;-12
2023/01/08 00:57:25;;;;;;;;;;;;;;;25.26;31.14;101479.56;5061515;28;1189;-13
2023/01/08 00:59:50;;;;;;;;;;;;;;;25.21;31.32;101471.97;5046961;28;1179;-12
2023/01/08 01:02:16;;;;;;;;;;;;;;;25.30;31.16;101472.91;5061440;28;1918;-12
2023/01/08 01:04:41;;;;;;;;;;;;;;;25.34;31.10;101468.88;5056546;28;1156;-12
2023/01/08 01:07:06;;;;;;;;;;;;;;;25.19;31.26;101464.03;5070471;28;1024;-12
2023/01/08 01:09:31;;;;;;;;;;;;;;;25.14;31.13;101469.03;5075743;28;1147;-12
2023/01/08 01:11:57;;;;;;;;;;;;;;;25.06;31.48;101466.25;5074904;28;1043;-12
2023/01/08 01:14:22;;;;;;;;;;;;;;;25.20;31.34;101464.88;5064445;28;1119;-12
2023/01/08 01:16:47;;;;;;;;;;;;;;;25.17;31.02;101468.72;5060680;28;1021;-13
2023/01/08 01:19:13;;;;;;;;;;;;;;;25.20;30.91;101464.88;5063726;28;1236;-12
2023/01/08 01:21:39;;;;;;;;;;;;;;;25.10;31.24;101470.34;5062875;28;1906;-12
2023/01/08 01:24:04;;;;;;;;;;;;;;;25.17;31.32;101471.41;5068186;28;1162;-13
2023/01/08 01:26:30;;;;;;;;;;;;;;;25.12;31.47;101475.56;5070423;28;1148;-12
2023/01/08 01:28:55;;;;;;;;;;;;;;;25.28;30.90;101470.34;5076074;28;1074;-13
2023/01/08 01:31:21;;;;;;;;;;;;;;;25.19;31.11;101469.41;5066389;28;1092;-12
2023/01/08 01:33:46;;;;;;;;;;;;;;;25.14;31.19;101470.91;5056509;28;1163;-13
2023/01/08 01:36:12;;;;;;;;;;;;;;;25.22;31.22;101465.59;5070483;28;1080;-13
2023/01/08 01:38:37;;;;;;;;;;;;;;;25.06;31.39;101469.78;5067953;28;1214;-12
2023/01/08 01:41:02;;;;;;;;;;;;;;;25.03;31.58;101466.56;5057070;28;1164;-12
2023/01/08 01:43:38;;;;;;;;;;;;;;;25.07;31.30;101466.09;5075470;28;1964;-12
2023/01/08 01:46:04;;;;;;;;;;;;;;;25.17;31.21;101459.81;5062212;28;1039;-12
2023/01/08 01:48:29;;;;;;;;;;;;;;;25.16;31.11;101460.78;5048889;28;1131;-12
2023/01/08 01:50:54;;;;;;;;;;;;;;;24.98;31.51;101466.16;5051654;28;1131;-13
2023/01/08 01:53:23;;;;;;;;;;;;;;;24.93;31.50;101453.16;5038068;28;1120;-13
2023/01/08 01:55:49;;;;;;;;;;;;;;;25.12;31.44;101471.03;5051119;28;1207;-12
2023/01/08 01:58:24;;;;;;;;;;;;;;;25.15;31.31;101472.56;5038259;28;1163;-12
2023/01/08 02:00:50;;;;;;;;;;;;;;;25.30;30.57;101468.38;5069184;28;1262;-13
2023/01/08 02:03:15;;;;;;;;;;;;;;;25.23;30.47;101469.13;5065151;28;1905;-12
2023/01/08 02:05:51;;;;;;;;;;;;;;;25.18;30.66;101464.19;5059597;28;1079;-12
2023/01/08 02:08:19;;;;;;;;;;;;;;;25.17;31.06;101457.13;5049099;28;893;-12
2023/01/08 02:10:52;;;;;;;;;;;;;;;24.63;32.03;101464.06;5053443;28;1086;-13
2023/01/08 02:13:22;;;;;;;;;;;;;;;24.51;32.19;101465.22;5055890;28;1171;-12
2023/01/08 02:15:59;;;;;;;;;;;;;;;24.68;31.94;101442.94;5074258;28;1031;-12
2023/01/08 02:18:27;;;;;;;;;;;;;;;25.03;30.89;101436.94;5061841;28;1131;-12
2023/01/08 02:20:53;;;;;;;;;;;;;;;24.90;31.51;101448.03;5057300;28;921;-12
2023/01/08 02:23:37;;;;;;;;;;;;;;;24.55;32.10;101450.50;5042757;28;1902;-13
2023/01/08 02:26:22;;;;;;;;;;;;;;;24.62;31.90;101446.22;5065718;28;1098;-12
2023/01/08 02:28:50;;;;;;;;;;;;;;;24.87;31.04;101442.97;5048005;28;1167;-12
2023/01/08 02:31:15;;;;;;;;;;;;;;;25.13;30.46;101451.19;5060939;28;1129;-12
2023/01/08 02:33:41;;;;;;;;;;;;;;;24.74;31.55;101444.16;5047836;28;935;-12
2023/01/08 02:36:09;;;;;;;;;;;;;;;24.58;31.90;101444.81;5066167;28;1099;-12
2023/01/08 02:38:34;;;;;;;;;;;;;;;24.76;31.55;101449.38;5078829;28;1179;-12
2023/01/08 02:41:02;;;;;;;;;;;;;;;24.96;30.89;101446.66;5048643;28;1107;-12
2023/01/08 02:43:34;;;;;;;;;;;;;;;25.07;30.76;101444.56;5078235;28;1949;-12
2023/01/08 02:46:00;;;;;;;;;;;;;;;24.78;31.42;101448.25;5078442;28;1166;-12
2023/01/08 02:48:30;;;;;;;;;;;;;;;24.53;31.81;101447.97;5053536;28;1036;-12
2023/01/08 02:50:58;;;;;;;;;;;;;;;24.73;31.61;101447.00;5054600;28;1000;-12
2023/01/08 02:53:24;;;;;;;;;;;;;;;24.91;31.00;101447.06;5048798;28;1076;-12
2023/01/08 02:55:51;;;;;;;;;;;;;;;25.13;30.61;101450.34;5050720;28;1052;-12
2023/01/08 02:58:16;;;;;;;;;;;;;;;24.81;31.71;101458.72;5060756;28;1226;-12
2023/01/08 03:00:41;;;;;;;;;;;;;;;24.62;31.88;101456.13;5060124;28;1076;-12
2023/01/08 03:03:17;;;;;;;;;;;;;;;24.78;31.55;101453.63;5028733;28;1952;-13
2023/01/08 03:05:43;;;;;;;;;;;;;;;24.97;30.98;101454.56;5040941;28;1168;-12
2023/01/08 03:08:09;;;;;;;;;;;;;;;25.15;30.46;101453.72;5030752;28;1124;-12
2023/01/08 03:10:34;;;;;;;;;;;;;;;24.90;31.19;101453.44;5034065;28;1072;-12
2023/01/08 03:13:07;;;;;;;;;;;;;;;24.53;31.81;101456.03;5020659;28;1214;-13
2023/01/08 03:15:34;;;;;;;;;;;;;;;24.75;31.32;101451.25;5033435;28;1025;-12
2023/01/08 03:18:01;;;;;;;;;;;;;;;24.96;30.68;101457.41;5020872;28;1180;-12
2023/01/08 03:20:27;;;;;;;;;;;;;;;25.07;30.67;101457.19;5056083;28;1120;-13
2023/01/08 03:22:53;;;;;;;;;;;;;;;24.77;31.41;101449.28;5029131;28;1906;-12
2023/01/08 03:25:19;;;;;;;;;;;;;;;24.55;31.71;101451.34;5038023;28;1089;-13
2023/01/08 03:27:46;;;;;;;;;;;;;;;24.70;31.45;101454.41;5028932;28;1053;-12
2023/01/08 03:30:11;;;;;;;;;;;;;;;24.82;31.04;101454.19;5038206;28;1032;-12
2023/01/08 03:32:38;;;;;;;;;;;;;;;24.99;30.62;101451.72;5029273;28;1061;-13
2023/01/08 03:35:03;;;;;;;;;;;;;;;24.88;31.16;101460.81;5033633;28;1065;-12
2023/01/08 03:37:31;;;;;;;;;;;;;;;24.43;32.09;101461.44;5030736;28;1259;-12
2023/01/08 03:39:57;;;;;;;;;;;;;;;24.58;31.68;101461.81;5026065;28;1407;-12
2023/01/08 03:42:23;;;;;;;;;;;;;;;24.91;31.21;101466.75;5057452;28;1894;-12
2023/01/08 03:44:48;;;;;;;;;;;;;;;25.11;30.51;101458.56;5049573;28;1095;-12
2023/01/08 03:47:13;;;;;;;;;;;;;;;25.02;31.00;101467.56;5058307;28;1040;-12
2023/01/08 03:49:39;;;;;;;;;;;;;;;24.89;30.75;101457.13;5036035;28;1012;-12
2023/01/08 03:52:04;;;;;;;;;;;;;;;25.14;30.81;101458.25;5031048;28;1139;-12
2023/01/08 03:54:30;;;;;;;;;;;;;;;25.56;30.18;101450.56;5044046;28;1155;-12
2023/01/08 03:56:56;;;;;;;;;;;;;;;25.70;29.70;101457.28;5057582;28;1049;-12
2023/01/08 03:59:21;;;;;;;;;;;;;;;25.66;29.46;101450.50;5053360;28;1312;-13
2023/01/08 04:01:46;;;;;;;;;;;;;;;25.46;30.00;101455.22;5037529;28;1910;-12
2023/01/08 04:04:11;;;;;;;;;;;;;;;25.64;29.74;101452.53;5041797;28;1218;-13
2023/01/08 04:06:37;;;;;;;;;;;;;;;25.89;29.55;101450.03;5046207;28;1068;-13
2023/01/08 04:09:02;;;;;;;;;;;;;;;25.99;29.15;101450.75;5054520;28;1156;-13
2023/01/08 04:11:27;;;;;;;;;;;;;;;25.62;29.57;101447.28;5046190;28;1306;-12
2023/01/08 04:13:53;;;;;;;;;;;;;;;25.89;29.67;101450.03;5041997;28;1116;-12
2023/01/08 04:16:18;;;;;;;;;;;;;;;26.07;29.40;101449.13;5057201;28;1072;-13
2023/01/08 04:18:43;;;;;;;;;;;;;;;26.28;28.46;101451.44;5043824;28;1067;-13
2023/01/08 04:21:09;;;;;;;;;;;;;;;26.34;28.72;101456.22;5045952;28;1215;-13
2023/01/08 04:23:34;;;;;;;;;;;;;;;26.16;28.71;101442.75;5053614;28;2493;-12
2023/01/08 04:26:02;;;;;;;;;;;;;;;24.96;25.97;101447.47;5056724;28;1815;-12
2023/01/08 04:28:27;;;;;;;;;;;;;;;25.62;26.87;101451.81;5055949;28;2055;-13
2023/01/08 04:30:53;;;;;;;;;;;;;;;25.53;26.60;101449.03;5056398;28;2213;-13
2023/01/08 04:33:18;;;;;;;;;;;;;;;25.26;27.07;101456.19;5048820;28;1854;-13
2023/01/08 04:35:43;;;;;;;;;;;;;;;25.09;27.10;101460.56;5043621;28;1917;-13
2023/01/08 04:38:08;;;;;;;;;;;;;;;24.94;25.73;101452.19;5044577;28;1879;-13
2023/01/08 04:40:34;;;;;;;;;;;;;;;23.70;26.73;101444.03;5034885;28;1262;-12
2023/01/08 04:42:59;;;;;;;;;;;;;;;25.02;25.97;101448.72;5056179;28;1898;-12
2023/01/08 04:45:24;;;;;;;;;;;;;;;25.82;25.19;101446.25;5055956;28;1064;-12
2023/01/08 04:47:56;;;;;;;;;;;;;;;26.20;24.70;101433.38;5056440;28;1179;-13
2023/01/08 04:50:21;;;;;;;;;;;;;;;25.96;26.27;101445.69;5055812;28;1091;-12
2023/01/08 04:52:47;;;;;;;;;;;;;;;26.00;26.25;101452.47;5055998;28;1019;-12
2023/01/08 04:55:12;;;;;;;;;;;;;;;26.55;24.83;101449.56;5052099;28;1110;-13
2023/01/08 04:57:37;;;;;;;;;;;;;;;25.95;24.38;101460.16;5036228;28;1040;-14
2023/01/08 05:00:03;;;;;;;;;;;;;;;25.33;25.03;101455.56;5053041;28;1318;-14
2023/01/08 05:02:28;;;;;;;;;;;;;;;25.77;25.64;101452.13;5055829;28;1906;-13
2023/01/08 05:04:53;;;;;;;;;;;;;;;26.04;25.35;101447.59;5056094;28;1103;-14
2023/01/08 05:07:19;;;;;;;;;;;;;;;26.42;24.86;101458.13;5043999;28;2510;-14
2023/01/08 05:09:44;;;;;;;;;;;;;;;26.70;25.07;101452.50;5046360;28;998;-14
2023/01/08 05:12:09;;;;;;;;;;;;;;;26.92;25.30;101454.75;5049221;28;1037;-13
2023/01/08 05:14:34;;;;;;;;;;;;;;;26.71;25.93;101458.75;5045600;28;1139;-13
2023/01/08 05:17:00;;;;;;;;;;;;;;;26.67;25.98;101451.97;5053116;28;1048;-13
2023/01/08 05:19:25;;;;;;;;;;;;;;;26.83;25.78;101464.69;5044629;28;1017;-13
2023/01/08 05:21:50;;;;;;;;;;;;;;;26.94;25.46;101464.41;5052644;28;1969;-13
2023/01/08 05:24:15;;;;;;;;;;;;;;;26.81;25.54;101458.63;5055616;28;1159;-13
2023/01/08 05:26:41;;;;;;;;;;;;;;;26.50;26.31;101463.56;5055808;28;1110;-13
2023/01/08 05:29:06;;;;;;;;;;;;;;;26.56;26.45;101467.44;5046835;28;1044;-13
2023/01/08 05:31:31;;;;;;;;;;;;;;;26.09;27.04;101464.13;5049208;28;1006;-13
2023/01/08 05:33:57;;;;;;;;;;;;;;;26.71;26.34;101464.97;5039682;28;834;-13
2023/01/08 05:36:22;;;;;;;;;;;;;;;27.37;25.36;101469.75;5050123;28;1092;-13
2023/01/08 05:38:48;;;;;;;;;;;;;;;27.36;25.77;101469.91;5028382;28;2583;-13
2023/01/08 05:41:13;;;;;;;;;;;;;;;27.61;25.57;101467.22;5042126;28;1084;-13
2023/01/08 05:43:38;;;;;;;;;;;;;;;27.98;25.02;101470.41;5047327;28;1898;-13
2023/01/08 05:46:04;;;;;;;;;;;;;;;28.58;24.28;101472.81;5046889;28;1198;-13
2023/01/08 05:48:30;;;;;;;;;;;;;;;28.85;23.69;101474.22;5043820;28;1119;-13
2023/01/08 05:50:56;;;;;;;;;;;;;;;28.90;23.62;101467.41;5055885;28;1252;-13
2023/01/08 05:53:21;;;;;;;;;;;;;;;29.03;23.63;101469.59;5047579;28;1111;-13
2023/01/08 05:55:46;;;;;;;;;;;;;;;29.08;23.24;101473.44;5050183;28;1183;-14
2023/01/08 05:58:11;;;;;;;;;;;;;;;29.15;23.43;101478.13;5055065;28;921;-13
2023/01/08 06:00:37;;;;;;;;;;;;;;;28.77;23.79;101484.25;5053783;28;1279;-13
2023/01/08 06:03:02;;;;;;;;;;;;;;;27.50;25.21;101481.91;5045101;28;1910;-13
2023/01/08 06:05:29;;;;;;;;;;;;;;;26.59;27.09;101482.47;5045094;28;1008;-13
2023/01/08 06:07:54;;;;;;;;;;;;;;;27.92;25.32;101479.22;5039582;28;2792;-13
2023/01/08 06:10:19;;;;;;;;;;;;;;;28.79;24.12;101493.88;5053717;28;1012;-13
2023/01/08 06:12:44;;;;;;;;;;;;;;;28.78;24.03;101488.66;5059104;28;1147;-13
2023/01/08 06:15:10;;;;;;;;;;;;;;;28.92;24.17;101495.16;5058297;28;1078;-13
2023/01/08 06:17:36;;;;;;;;;;;;;;;29.02;23.93;101505.81;5047328;28;989;-13
2023/01/08 06:20:01;;;;;;;;;;;;;;;28.95;23.72;101511.91;5058765;28;1075;-13
2023/01/08 06:22:26;;;;;;;;;;;;;;;27.74;25.31;101499.19;5059011;28;1898;-13
2023/01/08 06:24:52;;;;;;;;;;;;;;;27.39;25.99;101502.81;5044816;28;1053;-13
2023/01/08 06:27:17;;;;;;;;;;;;;;;27.07;26.25;101503.59;5046138;28;1063;-13
2023/01/08 06:29:42;;;;;;;;;;;;;;;26.87;27.04;101502.00;5058508;28;1147;-13
2023/01/08 06:32:07;;;;;;;;;;;;;;;27.52;26.14;101504.19;5052018;28;1108;-13
2023/01/08 06:34:33;;;;;;;;;;;;;;;28.51;24.81;101504.31;5039007;28;866;-13
2023/01/08 06:36:58;;;;;;;;;;;;;;;28.27;25.13;101506.88;5057183;28;2331;-14
2023/01/08 06:39:23;;;;;;;;;;;;;;;28.83;24.43;101507.91;5038790;28;1108;-13
2023/01/08 06:41:49;;;;;;;;;;;;;;;29.15;23.96;101516.91;5050836;28;1870;-13
2023/01/08 06:44:14;;;;;;;;;;;;;;;28.97;24.01;101509.06;5052455;28;1479;-13
2023/01/08 06:46:39;;;;;;;;;;;;;;;29.39;23.67;101512.38;5050633;28;917;-13
2023/01/08 06:49:08;;;;;;;;;;;;;;;29.16;23.59;101512.34;5044686;28;1075;-13
2023/01/08 06:51:33;;;;;;;;;;;;;;;28.18;25.08;101505.19;5058706;28;1052;-13
2023/01/08 06:53:58;;;;;;;;;;;;;;;27.63;25.70;101511.97;5027652;28;1276;-13
2023/01/08 06:56:24;;;;;;;;;;;;;;;27.66;26.17;101510.78;5045512;28;1116;-13
2023/01/08 06:58:49;;;;;;;;;;;;;;;28.29;25.29;101514.84;5057144;28;1174;-14
2023/01/08 07:01:14;;;;;;;;;;;;;;;29.04;24.16;101520.03;5045755;28;1112;-14
2023/01/08 07:03:39;;;;;;;;;;;;;;;29.35;24.02;101524.56;5051056;28;1918;-15
2023/01/08 07:06:05;;;;;;;;;;;;;;;29.01;24.38;101518.50;5058137;28;1456;-13
2023/01/08 07:08:30;;;;;;;;;;;;;;;28.98;24.08;101515.31;5058038;28;2590;-14
2023/01/08 07:10:56;;;;;;;;;;;;;;;27.95;25.48;101517.56;5057275;28;1221;-13
2023/01/08 07:13:22;;;;;;;;;;;;;;;27.83;25.73;101517.06;5057500;28;1104;-13
2023/01/08 07:15:48;;;;;;;;;;;;;;;26.89;27.25;101521.56;5038225;28;1536;-13
2023/01/08 07:18:13;;;;;;;;;;;;;;;26.85;27.45;101520.22;5050539;28;996;-13
2023/01/08 07:20:38;;;;;;;;;;;;;;;27.00;27.22;101517.72;5057558;28;1122;-13
2023/01/08 07:23:04;;;;;;;;;;;;;;;28.19;25.93;101526.69;5057290;28;1967;-13
2023/01/08 07:25:29;;;;;;;;;;;;;;;28.69;24.83;101532.00;5044568;28;1140;-13
2023/01/08 07:27:55;;;;;;;;;;;;;;;28.23;25.34;101524.47;5045785;28;1005;-14
2023/01/08 07:30:20;;;;;;;;;;;;;;;27.80;25.77;101530.06;5051445;28;1222;-13
2023/01/08 07:32:45;;;;;;;;;;;;;;;27.24;26.95;101526.94;5037505;28;1048;-13
2023/01/08 07:35:11;;;;;;;;;;;;;;;27.09;27.25;101524.03;5055538;28;1095;-13
2023/01/08 07:37:39;;;;;;;;;;;;;;;28.22;25.52;101529.06;5050360;28;1916;-13
2023/01/08 07:40:05;;;;;;;;;;;;;;;27.67;25.97;101527.84;5051328;28;1123;-13
2023/01/08 07:42:30;;;;;;;;;;;;;;;27.35;26.35;101538.44;5049189;28;1906;-13
2023/01/08 07:44:56;;;;;;;;;;;;;;;26.70;27.73;101533.47;5039155;28;1001;-13
2023/01/08 07:47:21;;;;;;;;;;;;;;;27.18;26.88;101533.00;5052778;28;866;-13
2023/01/08 07:49:46;;;;;;;;;;;;;;;27.38;26.50;101536.25;5057358;28;1060;-13
2023/01/08 07:52:11;;;;;;;;;;;;;;;27.98;26.49;101527.19;5057649;28;1065;-13
2023/01/08 07:54:37;;;;;;;;;;;;;;;28.77;24.98;101531.13;5043588;28;1507;-14
2023/01/08 07:57:02;;;;;;;;;;;;;;;28.09;25.44;101537.66;5057443;28;1024;-14
2023/01/08 07:59:27;;;;;;;;;;;;;;;27.86;25.87;101537.53;5060515;28;1243;-13
2023/01/08 08:01:53;;;;;;;;;;;;;;;27.13;27.31;101538.03;5077189;28;1909;-13
2023/01/08 08:04:18;;;;;;;;;;;;;;;28.11;25.39;101540.22;5071870;28;1082;-13
2023/01/08 08:06:43;;;;;;;;;;;;;;;27.87;25.84;101537.38;5057238;28;1125;-13
2023/01/08 08:09:08;;;;;;;;;;;;;;;27.36;26.90;101537.44;5057057;28;2532;-13
2023/01/08 08:11:34;;;;;;;;;;;;;;;26.96;27.36;101532.56;5061001;28;863;-14
2023/01/08 08:13:59;;;;;;;;;;;;;;;28.48;25.46;101529.84;5074592;28;1119;-14
2023/01/08 08:16:24;;;;;;;;;;;;;;;28.08;25.88;101532.44;5077242;28;1051;-13
2023/01/08 08:18:50;;;;;;;;;;;;;;;28.05;25.85;101527.38;5063413;28;1055;-13
2023/01/08 08:21:15;;;;;;;;;;;;;;;28.21;25.74;101534.63;5077203;28;1130;-14
2023/01/08 08:23:40;;;;;;;;;;;;;;;28.84;24.84;101539.38;5074194;28;1898;-13
2023/01/08 08:26:06;;;;;;;;;;;;;;;27.92;26.18;101536.00;5076042;28;1023;-14
2023/01/08 08:28:31;;;;;;;;;;;;;;;27.91;26.20;101532.44;5062726;28;1051;-13
2023/01/08 08:30:57;;;;;;;;;;;;;;;28.00;26.11;101530.59;5076345;28;1057;-13
2023/01/08 08:33:22;;;;;;;;;;;;;;;28.25;25.98;101525.16;5062654;28;987;-14
2023/01/08 08:35:49;;;;;;;;;;;;;;;28.37;25.31;101520.25;5076477;28;877;-13
2023/01/08 08:38:14;;;;;;;;;;;;;;;28.07;25.75;101534.31;5071019;28;2429;-13
2023/01/08 08:40:40;;;;;;;;;;;;;;;27.31;27.13;101529.00;5065883;28;1095;-13
2023/01/08 08:43:05;;;;;;;;;;;;;;;28.54;25.29;101531.88;5074049;28;1898;-13
2023/01/08 08:45:31;;;;;;;;;;;;;;;28.57;24.99;101533.38;5065788;28;1103;-13
2023/01/08 08:47:56;;;;;;;;;;;;;;;28.05;25.61;101516.53;5068741;28;1040;-13
2023/01/08 08:50:21;;;;;;;;;;;;;;;28.26;25.80;101524.13;5066734;28;1020;-14
2023/01/08 08:52:47;;;;;;;;;;;;;;;28.08;26.02;101527.03;5059330;28;1112;-14
2023/01/08 08:55:14;;;;;;;;;;;;;;;28.13;25.82;101523.81;5056081;28;1017;-13
2023/01/08 08:57:40;;;;;;;;;;;;;;;28.28;25.40;101510.44;5069699;28;1099;-14
2023/01/08 09:00:05;;;;;;;;;;;;;;;28.41;25.64;101518.88;5066285;28;1242;-14
2023/01/08 09:02:31;;;;;;;;;;;;;;;28.20;25.58;101522.09;5062434;28;1980;-13
2023/01/08 09:04:57;;;;;;;;;;;;;;;28.14;25.70;101520.94;5065903;28;1976;-13
2023/01/08 09:07:22;;;;;;;;;;;;;;;28.12;25.65;101514.84;5067791;28;2341;-14
2023/01/08 09:09:48;;;;;;;;;;;;;;;28.14;25.68;101510.13;5066410;28;1103;-14
2023/01/08 09:12:13;;;;;;;;;;;;;;;28.11;25.94;101505.88;5059394;28;864;-13
2023/01/08 09:14:38;;;;;;;;;;;;;;;28.09;25.89;101499.81;5056379;28;1119;-13
2023/01/08 09:17:03;;;;;;;;;;;;;;;28.02;26.12;101501.53;5069981;28;1020;-13
2023/01/08 09:19:29;;;;;;;;;;;;;;;27.92;26.29;101508.97;5066306;28;1225;-13
2023/01/08 09:21:54;;;;;;;;;;;;;;;27.85;26.15;101500.69;5076025;28;1902;-14
2023/01/08 09:24:19;;;;;;;;;;;;;;;27.92;26.12;101493.59;5075467;28;881;-13
2023/01/08 09:26:45;;;;;;;;;;;;;;;28.01;25.88;101493.59;5076149;28;1210;-13
2023/01/08 09:29:10;;;;;;;;;;;;;;;27.97;26.00;101493.94;5066194;28;1099;-13
2023/01/08 09:31:35;;;;;;;;;;;;;;;28.06;26.04;101485.81;5069251;28;1028;-13
2023/01/08 09:34:00;;;;;;;;;;;;;;;28.05;25.97;101486.78;5065948;28;1043;-13
2023/01/08 09:36:26;;;;;;;;;;;;;;;28.04;25.89;101488.69;5074565;28;885;-14
2023/01/08 09:38:51;;;;;;;;;;;;;;;28.06;26.02;101481.22;5066722;28;2600;-13
2023/01/08 09:41:18;;;;;;;;;;;;;;;28.05;25.88;101481.38;5075901;28;1162;-13
2023/01/08 09:43:44;;;;;;;;;;;;;;;28.08;25.92;101471.06;5075418;28;1964;-13
2023/01/08 09:46:09;;;;;;;;;;;;;;;28.06;25.64;101469.56;5044331;28;1036;-13
2023/01/08 09:48:35;;;;;;;;;;;;;;;28.08;26.09;101468.38;5057496;28;872;-13
2023/01/08 09:51:00;;;;;;;;;;;;;;;28.11;26.12;101462.63;5073711;28;1056;-13
2023/01/08 09:53:25;;;;;;;;;;;;;;;28.15;25.99;101467.66;5065131;28;1004;-13
2023/01/08 09:56:00;;;;;;;;;;;;;;;28.14;26.01;101463.28;5044205;28;1056;-14
2023/01/08 09:58:29;;;;;;;;;;;;;;;28.10;25.63;101454.66;5047504;28;988;-13
2023/01/08 10:00:54;;;;;;;;;;;;;;;28.09;26.10;101458.41;5055850;28;1271;-13
2023/01/08 10:03:20;;;;;;;;;;;;;;;28.15;25.95;101451.44;5065945;28;1906;-13
2023/01/08 10:05:45;;;;;;;;;;;;;;;28.13;25.85;101450.78;5044436;28;1110;-13
2023/01/08 10:08:12;;;;;;;;;;;;;;;28.14;26.11;101447.91;5072847;28;2515;-13
2023/01/08 10:10:38;;;;;;;;;;;;;;;28.19;26.22;101433.88;5061691;28;1095;-13
2023/01/08 10:13:03;;;;;;;;;;;;;;;28.09;26.12;101428.66;5047854;28;1121;-14
2023/01/08 10:15:28;;;;;;;;;;;;;;;28.24;25.83;101439.59;5068794;28;1049;-13
2023/01/08 10:17:56;;;;;;;;;;;;;;;28.32;25.97;101434.16;5064562;28;1028;-14
2023/01/08 10:20:22;;;;;;;;;;;;;;;28.35;25.77;101433.84;5058760;28;1147;-14
2023/01/08 10:22:48;;;;;;;;;;;;;;;28.38;25.90;101426.41;5056020;28;1894;-14
2023/01/08 10:25:15;;;;;;;;;;;;;;;28.35;25.79;101419.47;5057393;28;1279;-14
2023/01/08 10:27:50;;;;;;;;;;;;;;;28.57;25.88;101422.41;5065750;28;1115;-14
2023/01/08 10:30:23;;;;;;;;;;;;;;;28.22;26.34;101414.56;5059520;28;1207;-15
2023/01/08 10:32:52;;;;;;;;;;;;;;;28.06;26.26;101407.38;5075485;28;1011;-14
2023/01/08 10:35:18;;;;;;;;;;;;;;;28.08;26.27;101408.88;5043664;28;1096;-14
2023/01/08 10:37:46;;;;;;;;;;;;;;;28.10;26.49;101403.28;5075169;28;2314;-14
2023/01/08 10:40:17;;;;;;;;;;;;;;;27.92;26.67;101400.81;5069015;28;1166;-14
2023/01/08 10:42:42;;;;;;;;;;;;;;;28.22;26.36;101404.63;5068687;28;1898;-14
2023/01/08 10:45:21;;;;;;;;;;;;;;;29.14;24.95;101395.19;5044197;28;1091;-14
2023/01/08 10:47:47;;;;;;;;;;;;;;;28.36;26.02;101391.41;5049492;28;1227;-14
2023/01/08 10:50:22;;;;;;;;;;;;;;;28.03;26.45;101389.63;5061396;28;1142;-14
2023/01/08 10:52:51;;;;;;;;;;;;;;;27.72;26.67;101388.53;5060683;28;1595;-14
2023/01/08 10:55:21;;;;;;;;;;;;;;;27.75;26.61;101382.75;5068718;28;1112;-15
2023/01/08 10:57:56;;;;;;;;;;;;;;;27.65;26.63;101365.00;5076418;28;1135;-14
2023/01/08 11:00:22;;;;;;;;;;;;;;;27.35;27.46;101371.81;5077405;28;1096;-14
2023/01/08 11:02:49;;;;;;;;;;;;;;;27.57;26.81;101372.13;5042016;28;1974;-14
2023/01/08 11:05:14;;;;;;;;;;;;;;;27.63;26.81;101366.03;5071034;28;1056;-14
2023/01/08 11:07:40;;;;;;;;;;;;;;;27.27;27.81;101366.41;5040866;28;1860;-14
2023/01/08 11:10:05;;;;;;;;;;;;;;;27.80;26.57;101365.16;5052609;28;1195;-14
2023/01/08 11:12:35;;;;;;;;;;;;;;;27.69;26.66;101369.09;5071567;28;1194;-14
2023/01/08 11:15:00;;;;;;;;;;;;;;;27.57;27.25;101371.28;5047467;28;1080;-14
2023/01/08 11:17:26;;;;;;;;;;;;;;;27.85;26.60;101365.50;5053929;28;1048;-14
2023/01/08 11:19:51;;;;;;;;;;;;;;;27.61;26.88;101372.63;5057776;28;1088;-14
2023/01/08 11:22:23;;;;;;;;;;;;;;;26.98;27.98;101365.00;5071662;28;1909;-15
2023/01/08 11:24:48;;;;;;;;;;;;;;;27.83;26.94;101368.38;5057896;28;1103;-14
2023/01/08 11:27:29;;;;;;;;;;;;;;;27.58;27.16;101371.09;5040256;28;1131;-14
2023/01/08 11:29:54;;;;;;;;;;;;;;;27.27;27.41;101363.69;5071447;28;1031;-14
2023/01/08 11:32:22;;;;;;;;;;;;;;;27.66;26.99;101364.00;5067749;28;1059;-14
2023/01/08 11:35:07;;;;;;;;;;;;;;;27.53;26.89;101370.75;5062832;28;1159;-14
2023/01/08 11:37:34;;;;;;;;;;;;;;;26.55;28.78;101360.53;5052049;28;1819;-14
2023/01/08 11:39:59;;;;;;;;;;;;;;;28.00;26.45;101362.91;5045225;28;1136;-14
2023/01/08 11:42:43;;;;;;;;;;;;;;;27.64;26.82;101353.38;5065957;28;1901;-14
2023/01/08 11:45:15;;;;;;;;;;;;;;;27.13;27.93;101360.66;5066045;28;854;-14
2023/01/08 11:47:40;;;;;;;;;;;;;;;27.53;26.90;101359.13;5059662;28;1176;-14
2023/01/08 11:50:09;;;;;;;;;;;;;;;27.57;26.83;101357.75;5068623;28;1020;-15
2023/01/08 11:52:38;;;;;;;;;;;;;;;26.53;28.98;101355.31;5070998;28;1009;-14
2023/01/08 11:55:15;;;;;;;;;;;;;;;27.68;27.00;101360.13;5058326;28;1219;-14
2023/01/08 11:57:59;;;;;;;;;;;;;;;27.50;27.02;101355.75;5075283;28;1016;-14
2023/01/08 12:00:29;;;;;;;;;;;;;;;26.57;28.73;101357.66;5053663;28;1228;-14
2023/01/08 12:02:55;;;;;;;;;;;;;;;28.10;26.14;101360.88;5026531;28;1914;-14
2023/01/08 12:05:24;;;;;;;;;;;;;;;27.17;27.69;101347.66;5026670;28;1088;-14
2023/01/08 12:07:55;;;;;;;;;;;;;;;28.01;26.94;101355.66;5037179;28;2474;-14
2023/01/08 12:10:20;;;;;;;;;;;;;;;29.16;24.95;101353.31;5034236;28;1048;-14
2023/01/08 12:13:15;;;;;;;;;;;;;;;28.57;25.39;101355.59;5057153;28;849;-15
2023/01/08 12:15:40;;;;;;;;;;;;;;;27.77;26.54;101354.72;5042806;28;1478;-14
2023/01/08 12:18:24;;;;;;;;;;;;;;;27.70;26.61;101350.00;5046467;28;1005;-15
2023/01/08 12:20:49;;;;;;;;;;;;;;;27.60;26.89;101354.72;5037036;28;1104;-14
2023/01/08 12:23:31;;;;;;;;;;;;;;;27.59;26.94;101356.56;5037370;28;1902;-15
2023/01/08 12:25:59;;;;;;;;;;;;;;;26.65;28.29;101355.84;5029584;28;863;-14
2023/01/08 12:28:37;;;;;;;;;;;;;;;26.84;28.21;101344.91;5053383;28;1040;-14
2023/01/08 12:31:11;;;;;;;;;;;;;;;28.03;26.57;101348.22;5056571;28;980;-14
2023/01/08 12:33:43;;;;;;;;;;;;;;;28.64;25.58;101360.28;5043346;28;1128;-14
2023/01/08 12:36:10;;;;;;;;;;;;;;;27.85;26.54;101352.84;5038695;28;1139;-14
2023/01/08 12:38:36;;;;;;;;;;;;;;;27.56;26.88;101356.09;5019544;28;1808;-15
2023/01/08 12:41:11;;;;;;;;;;;;;;;27.31;27.20;101350.72;5031764;28;1195;-15
2023/01/08 12:43:37;;;;;;;;;;;;;;;28.64;25.70;101354.88;5049270;28;1906;-14
2023/01/08 12:46:02;;;;;;;;;;;;;;;28.14;25.79;101350.53;5037201;28;1020;-14